Latest Weather Observations for Maria Island

IDT60801

Issued at 9:31 pm EDT Thursday 30 March 2017 (issued every 30 minutes, with the page automatically refreshed every 10 minutes)

About weather observations | Map of weather stations | Latest weather observations for TAS | Other Formats
Station Details ID: 092124 Name: MARIA ISLAND (POINT LESUEUR) Lat: -42.66 Lon: 148.02 Height: 28.0 m
Data from the previous 72 hours. | See also: Recent months at Maria Island
Date/Time
EDT
Temp
°C
App
Temp
°C
Dew
Point
°C
Rel
Hum
%
Delta-T
°C
Wind Press
QNH
hPa
Press
MSL
hPa
Rain since
9am
mm
Dir  Spd
km/h
Gust
km/h
Spd
kts
Gust
kts
30/09:30pm 12.8 - - - - SSW 24 32 13 17 1019.2 1019.2 -
30/09:00pm 13.0 - - - - SSW 26 32 14 17 1018.9 1018.9 -
30/08:30pm 13.0 - - - - SSW 28 32 15 17 1018.3 1018.3 -
30/08:00pm 13.1 - - - - SSW 26 32 14 17 1017.8 1017.8 -
30/07:30pm 13.1 - - - - SSW 32 37 17 20 1017.2 1017.2 -
30/07:00pm 13.3 - - - - SSW 32 41 17 22 1016.8 1016.8 -
30/06:30pm 13.4 - - - - SSW 33 39 18 21 1016.4 1016.4 -
30/06:00pm 13.5 - - - - SSW 35 41 19 22 1015.7 1015.7 -
30/05:30pm 13.5 - - - - SSW 35 43 19 23 1015.3 1015.3 -
30/05:00pm 13.8 - - - - SSW 30 35 16 19 1014.9 1014.8 -
30/04:30pm 14.1 - - - - SSW 33 43 18 23 1014.4 1014.3 -
30/04:00pm 14.8 - - - - SSW 32 37 17 20 1013.9 1013.8 -
30/03:30pm 14.9 - - - - SSW 35 43 19 23 1013.4 1013.3 -
30/03:00pm 14.6 - - - - S 24 28 13 15 1013.1 1013.0 -
30/02:30pm 15.6 - - - - SSW 33 39 18 21 1012.8 1012.7 -
30/02:00pm 15.2 - - - - SSW 26 32 14 17 1012.7 1012.6 -
30/01:30pm 15.7 - - - - SSW 22 28 12 15 1012.7 1012.6 -
30/01:00pm 15.0 - - - - SSW 30 35 16 19 1012.6 1012.5 -
30/12:30pm 15.3 - - - - SSW 24 30 13 16 1012.6 1012.5 -
30/12:00pm 14.9 - - - - SSW 22 26 12 14 1012.5 1012.4 -
30/11:30am 14.2 - - - - SSW 24 32 13 17 1012.3 1012.2 -
30/11:00am 14.2 - - - - WSW 4 6 2 3 1012.2 1012.1 -
30/10:30am 13.7 - - - - WSW 11 17 6 9 1012.0 1011.9 -
30/10:00am 13.4 - - - - WSW 15 19 8 10 1011.7 1011.6 -
30/09:30am 12.7 - - - - W 11 20 6 11 1011.4 1011.3 -
30/09:00am 12.0 - - - - W 15 26 8 14 1011.1 1011.0 -
30/08:30am 11.8 - - - - WNW 19 22 10 12 1010.3 1010.2 -
30/08:00am 11.7 - - - - WNW 24 30 13 16 1009.5 1009.4 -
30/07:30am 11.5 - - - - WNW 24 28 13 15 1008.8 1008.7 -
30/07:00am 11.6 - - - - NW 20 28 11 15 1008.0 1007.9 -
30/06:30am 11.4 - - - - WNW 19 26 10 14 1007.7 1007.6 -
30/06:00am 11.7 - - - - NW 17 22 9 12 1007.2 1007.1 -
30/05:30am 11.8 - - - - W 15 17 8 9 1006.2 1006.1 -
30/05:00am 11.5 - - - - WNW 11 15 6 8 1006.9 1006.8 -
30/04:30am 11.9 - - - - NW 9 15 5 8 1006.8 1006.7 -
30/04:00am 11.4 - - - - NW 9 13 5 7 1006.2 1006.1 -
30/03:30am 12.3 - - - - W 6 7 3 4 1006.3 1006.2 -
30/03:00am 12.2 - - - - WNW 6 7 3 4 1006.2 1006.1 -
30/02:30am 12.0 - - - - NNE 4 6 2 3 1006.8 1006.7 -
30/02:00am 12.0 - - - - CALM 0 0 0 0 1006.0 1005.9 -
30/01:30am 12.0 - - - - CALM 0 0 0 0 1005.8 1005.7 -
30/01:00am 11.9 - - - - CALM 0 2 0 1 1005.5 1005.4 -
30/12:30am 12.0 - - - - NW 7 9 4 5 1005.9 1005.8 -
30/12:00am 11.9 - - - - NNW 6 9 3 5 1005.4 1005.3 -
 
Date/Time
EDT
Temp
°C
App
Temp
°C
Dew
Point
°C
Rel
Hum
%
Delta-T
°C
Wind Press
QNH
hPa
Press
MSL
hPa
Rain since
9am
mm
Dir  Spd
km/h
Gust
km/h
Spd
kts
Gust
kts
29/11:30pm 11.9 - - - - W 7 11 4 6 1005.1 1005.0 -
29/11:00pm 11.3 - - - - NE 6 7 3 4 1004.3 1004.2 -
29/10:30pm 11.8 - - - - WNW 7 9 4 5 1004.0 1003.9 -
29/10:00pm 11.6 - - - - WNW 11 17 6 9 1004.3 1004.2 -
29/09:30pm 11.3 - - - - SSW 6 9 3 5 1004.0 1003.9 -
29/09:00pm 11.2 - - - - WSW 22 30 12 16 1003.8 1003.7 -
29/08:30pm 11.1 - - - - SW 22 33 12 18 1003.8 1003.7 -
29/08:00pm 11.2 - - - - SSW 48 59 26 32 1002.6 1002.5 -
29/07:30pm 12.4 - - - - S 41 48 22 26 1001.0 1000.9 -
29/07:00pm 14.0 - - - - S 43 52 23 28 1000.2 1000.1 -
29/06:40pm 14.8 - - - - S 30 54 16 29 999.4 999.3 -
29/06:30pm 16.5 - - - - SSW 13 26 7 14 998.8 998.8 -
29/06:11pm 18.6 - - - - NW 28 37 15 20 998.0 998.0 -
29/06:00pm 19.0 - - - - NNW 39 50 21 27 997.4 997.4 -
29/05:30pm 19.1 - - - - N 43 52 23 28 997.2 997.2 -
29/05:00pm 19.9 - - - - NNW 44 57 24 31 996.7 996.7 -
29/04:54pm 19.9 - - - - N 33 54 18 29 996.9 996.9 -
29/04:30pm 19.8 - - - - N 44 54 24 29 997.2 997.2 -
29/04:00pm 20.3 - - - - N 52 61 28 33 996.6 996.6 -
29/03:30pm 20.4 - - - - N 48 59 26 32 996.8 996.8 -
29/03:00pm 21.7 - - - - N 44 54 24 29 997.1 997.1 -
29/02:30pm 21.7 - - - - N 46 56 25 30 997.5 997.5 -
29/02:00pm 21.7 - - - - NNW 50 61 27 33 997.9 997.9 -
29/01:30pm 21.4 - - - - NNW 44 56 24 30 998.6 998.6 -
29/01:00pm 21.4 - - - - N 44 56 24 30 999.2 999.1 -
29/12:30pm 21.2 - - - - NNW 52 63 28 34 999.3 999.2 -
29/12:00pm 20.4 - - - - N 46 57 25 31 1000.0 999.9 -
29/11:30am 20.6 - - - - N 41 56 22 30 1000.7 1000.6 -
29/11:00am 19.3 - - - - N 37 44 20 24 1001.4 1001.3 -
29/10:30am 18.4 - - - - N 46 57 25 31 1001.8 1001.7 -
29/10:00am 18.5 - - - - N 41 50 22 27 1001.9 1001.8 -
29/09:46am 18.5 - - - - N 39 59 21 32 1002.0 1001.9 -
29/09:30am 18.1 - - - - N 37 44 20 24 1002.2 1002.1 -
29/09:00am 18.4 - - - - N 35 43 19 23 1002.4 1002.3 -
29/08:30am 17.9 - - - - N 39 46 21 25 1002.7 1002.6 -
29/08:00am 17.1 - - - - N 37 43 20 23 1002.8 1002.7 -
29/07:30am 16.7 - - - - N 37 43 20 23 1003.1 1003.0 -
29/07:00am 16.6 - - - - N 44 48 24 26 1003.0 1002.9 -
29/06:30am 16.4 - - - - N 41 43 22 23 1003.2 1003.1 -
29/06:00am 16.1 - - - - N 41 48 22 26 1003.3 1003.2 -
29/05:30am 16.1 - - - - N 43 48 23 26 1003.2 1003.1 -
29/05:00am 15.9 - - - - N 41 46 22 25 1003.5 1003.4 -
29/04:30am 16.0 - - - - NNW 41 48 22 26 1003.5 1003.4 -
29/04:00am 15.9 - - - - NNW 39 46 21 25 1003.9 1003.8 -
29/03:30am 16.0 - - - - NNW 37 43 20 23 1004.2 1004.1 -
29/03:00am 15.7 - - - - NNW 32 35 17 19 1004.5 1004.4 -
29/02:30am 15.6 - - - - NNW 32 37 17 20 1004.9 1004.8 -
29/02:00am 15.9 - - - - NNW 32 39 17 21 1005.2 1005.1 -
29/01:30am 15.9 - - - - NNW 30 39 16 21 1005.3 1005.2 -
29/01:00am 16.0 - - - - N 33 39 18 21 1005.7 1005.6 -
29/12:30am 16.1 - - - - N 39 43 21 23 1005.5 1005.4 -
29/12:00am 16.3 - - - - N 39 44 21 24 1005.5 1005.4 -
 
Date/Time
EDT
Temp
°C
App
Temp
°C
Dew
Point
°C
Rel
Hum
%
Delta-T
°C
Wind Press
QNH
hPa
Press
MSL
hPa
Rain since
9am
mm
Dir  Spd
km/h
Gust
km/h
Spd
kts
Gust
kts
28/11:30pm 16.4 - - - - N 37 44 20 24 1005.8 1005.7 -
28/11:00pm 16.6 - - - - N 33 39 18 21 1006.1 1006.0 -
28/10:30pm 16.9 - - - - N 22 26 12 14 1006.6 1006.5 -
28/10:00pm 17.2 - - - - N 24 28 13 15 1006.6 1006.5 -
28/09:30pm 17.5 - - - - NNW 26 32 14 17 1006.3 1006.2 -
28/09:00pm 18.1 - - - - NNW 30 39 16 21 1006.1 1006.0 -
28/08:30pm 18.0 - - - - NNW 24 33 13 18 1005.5 1005.4 -
28/08:00pm 18.7 - - - - NNW 37 44 20 24 1004.7 1004.6 -
28/07:43pm 18.9 - - - - NNW 32 43 17 23 1004.4 1004.3 -
28/07:30pm 19.1 - - - - NW 19 24 10 13 1004.5 1004.4 -
28/07:00pm 20.5 - - - - WNW 26 30 14 16 1004.3 1004.2 -
28/06:30pm 21.3 - - - - W 22 28 12 15 1004.1 1004.0 -
28/06:00pm 20.8 - - - - NNW 17 20 9 11 1004.0 1003.9 -
28/05:30pm 21.3 - - - - NNW 26 32 14 17 1003.7 1003.6 -
28/05:00pm 21.5 - - - - N 26 30 14 16 1003.4 1003.3 -
28/04:30pm 21.6 - - - - N 28 32 15 17 1003.3 1003.2 -
28/04:00pm 22.0 - - - - N 28 33 15 18 1003.3 1003.2 -
28/03:30pm 22.0 - - - - N 28 33 15 18 1003.2 1003.1 -
28/03:00pm 21.7 - - - - N 28 32 15 17 1003.6 1003.5 -
28/02:30pm 21.7 - - - - N 32 37 17 20 1003.8 1003.7 -
28/02:00pm 21.4 - - - - N 26 32 14 17 1004.3 1004.2 -
28/01:30pm 21.8 - - - - NNW 24 30 13 16 1004.8 1004.7 -
28/01:00pm 21.2 - - - - N 26 32 14 17 1005.0 1004.9 -
28/12:30pm 20.4 - - - - NNW 22 32 12 17 1005.7 1005.6 -
28/12:00pm 19.9 - - - - NNW 22 28 12 15 1005.7 1005.6 -
28/11:30am 19.5 - - - - N 24 32 13 17 1005.9 1005.8 -
28/11:00am 18.8 - - - - N 20 26 11 14 1006.2 1006.1 -
28/10:30am 18.2 - - - - N 19 22 10 12 1006.4 1006.3 -
28/10:00am 17.2 - - - - N 24 35 13 19 1006.4 1006.3 -
28/09:30am 16.5 - - - - NNW 33 39 18 21 1006.4 1006.3 0.0
28/09:00am 16.0 - - - - NNW 17 28 9 15 1006.4 1006.3 0.0
28/08:30am 14.7 - - - - NW 15 26 8 14 1006.3 1006.2 0.0
28/08:00am 13.9 - - - - NW 17 26 9 14 1006.2 1006.1 0.0
28/07:30am 13.5 - - - - NW 19 24 10 13 1006.2 1006.1 0.0
28/07:00am 14.1 - - - - NNW 32 39 17 21 1005.8 1005.7 0.0
28/06:30am 14.2 - - - - NNW 33 39 18 21 1005.7 1005.6 0.0
28/06:00am 14.0 - - - - NNW 35 41 19 22 1005.6 1005.5 0.0
28/05:30am 14.1 - - - - NNW 39 46 21 25 1005.3 1005.2 0.0
28/05:00am 14.4 - - - - N 41 48 22 26 1004.9 1004.8 0.0
28/04:30am 14.5 - - - - N 44 50 24 27 1004.2 1004.1 0.0
28/04:00am 14.5 - - - - N 37 43 20 23 1004.2 1004.1 0.0
28/03:30am 14.8 - - - - N 33 39 18 21 1004.5 1004.4 0.0
28/03:00am 14.9 - - - - N 35 41 19 22 1004.5 1004.4 0.0
28/02:30am 15.4 - - - - N 39 44 21 24 1004.0 1003.9 0.0
28/02:00am 15.9 - - - - N 28 35 15 19 1004.5 1004.4 0.0
28/01:30am 15.8 - - - - N 24 37 13 20 1004.6 1004.5 0.0
28/01:00am 16.1 - - - - NNW 22 33 12 18 1004.7 1004.6 0.0
28/12:30am 16.0 - - - - NNW 22 26 12 14 1004.7 1004.6 0.0
28/12:00am 16.2 - - - - NNW 22 33 12 18 1004.6 1004.5 0.0
 
Date/Time
EDT
Temp
°C
App
Temp
°C
Dew
Point
°C
Rel
Hum
%
Delta-T
°C
Wind Press
QNH
hPa
Press
MSL
hPa
Rain since
9am
mm
Dir  Spd
km/h
Gust
km/h
Spd
kts
Gust
kts
27/11:30pm 16.2 - - - - NNW 24 32 13 17 1004.4 1004.3 0.0
27/11:00pm 15.9 - - - - NNW 33 39 18 21 1003.4 1003.3 0.0
27/10:30pm 16.3 - - - - NNW 22 28 12 15 1003.7 1003.6 0.0
27/10:00pm 17.0 - - - - NW 33 52 18 28 1003.3 1003.2 0.0
27/09:34pm 16.9 - - - - NW 30 48 16 26 1002.7 1002.6 0.0

Other Formats:

Comma delimited format used in spreadsheet applications
http://www.bom.gov.au/fwo/IDT60801/IDT60801.95988.axf

JavaScript Object Notation format (JSON) in row-major order
http://www.bom.gov.au/fwo/IDT60801/IDT60801.95988.json